createdAt,value
2019-01-24T00:04:25.973Z,-4.10
2019-01-24T00:09:29.495Z,-4.20
2019-01-24T00:14:32.960Z,-4.70
2019-01-24T00:19:36.459Z,-4.20
2019-01-24T00:24:45.525Z,-3.90
2019-01-24T00:29:49.084Z,-3.70
2019-01-24T00:34:52.474Z,-4.00
2019-01-24T00:39:59.005Z,-4.00
2019-01-24T00:45:02.706Z,-3.70
2019-01-24T00:50:07.688Z,-4.50
2019-01-24T00:55:11.887Z,-4.20
2019-01-24T01:00:37.345Z,-4.10
2019-01-24T01:05:43.863Z,-3.60
2019-01-24T01:10:48.618Z,-4.00
2019-01-24T01:15:52.013Z,-3.60
2019-01-24T01:21:02.264Z,-3.60
2019-01-24T01:26:06.792Z,-3.80
2019-01-24T01:31:10.178Z,-3.80
2019-01-24T01:36:16.813Z,-4.00
2019-01-24T01:41:20.066Z,-4.10
2019-01-24T01:46:23.488Z,-3.60
2019-01-24T01:51:27.103Z,-3.90
2019-01-24T01:56:31.839Z,-3.70
2019-01-24T02:01:38.230Z,-4.00
2019-01-24T02:06:41.697Z,-3.90
2019-01-24T02:11:45.095Z,-3.70
2019-01-24T02:16:48.675Z,-3.60
2019-01-24T02:21:55.259Z,-4.00
2019-01-24T02:26:58.710Z,-4.10
2019-01-24T02:32:05.128Z,-3.90
2019-01-24T02:37:08.414Z,-3.50
2019-01-24T02:42:11.879Z,-3.40
2019-01-24T02:47:15.222Z,-3.50
2019-01-24T02:52:18.560Z,-3.90
2019-01-24T02:57:23.447Z,-4.40
2019-01-24T03:02:26.792Z,-4.60
2019-01-24T03:07:32.054Z,-4.70
2019-01-24T03:12:38.503Z,-4.60
2019-01-24T03:17:41.762Z,-4.20
2019-01-24T03:22:45.635Z,-3.90
2019-01-24T03:27:48.975Z,-3.50
2019-01-24T03:32:55.597Z,-3.60
2019-01-24T03:38:01.854Z,-4.00
2019-01-24T03:43:05.070Z,-4.50
2019-01-24T03:48:08.366Z,-4.20
2019-01-24T03:53:11.949Z,-4.10
2019-01-24T03:58:16.998Z,-3.70
2019-01-24T04:03:21.846Z,-3.70
2019-01-24T04:08:25.189Z,-3.50
2019-01-24T04:13:28.524Z,-3.70
2019-01-24T04:18:40.003Z,-3.60
2019-01-24T04:23:43.583Z,-3.70
2019-01-24T04:28:47.101Z,-3.60
2019-01-24T04:33:53.415Z,-3.30
2019-01-24T04:38:56.640Z,-3.40
2019-01-24T04:44:00.104Z,-3.60
2019-01-24T04:49:16.976Z,-3.10
2019-01-24T04:54:20.369Z,-3.10
2019-01-24T04:59:26.784Z,-3.00
2019-01-24T05:04:31.366Z,-2.90
2019-01-24T05:09:49.464Z,-3.00
2019-01-24T05:14:52.770Z,-3.00
2019-01-24T05:19:57.933Z,-2.90
2019-01-24T05:25:02.962Z,-3.00
2019-01-24T05:30:21.307Z,-3.00
2019-01-24T05:35:25.135Z,-3.00
2019-01-24T05:40:28.638Z,-2.90
2019-01-24T05:45:32.162Z,-3.00
2019-01-24T05:50:35.888Z,-3.00
2019-01-24T05:55:39.129Z,-2.90
2019-01-24T06:00:48.647Z,-3.00
2019-01-24T06:05:52.023Z,-2.90
2019-01-24T06:11:01.928Z,-2.80
2019-01-24T06:16:05.385Z,-2.80
2019-01-24T06:21:08.811Z,-2.90
2019-01-24T06:26:12.374Z,-2.80
2019-01-24T06:31:15.848Z,-2.80
2019-01-24T06:36:19.352Z,-2.70
2019-01-24T06:41:25.809Z,-2.80
2019-01-24T06:46:29.289Z,-2.70
2019-01-24T06:51:32.832Z,-2.70
2019-01-24T06:56:40.107Z,-2.80
2019-01-24T07:01:43.547Z,-2.50
2019-01-24T07:06:46.887Z,-2.70
2019-01-24T07:11:53.215Z,-2.60
2019-01-24T07:16:56.485Z,-2.60
2019-01-24T07:22:02.566Z,-2.50
2019-01-24T07:27:05.964Z,-2.60
2019-01-24T07:32:09.288Z,-2.60
2019-01-24T07:37:12.593Z,-2.50
2019-01-24T07:42:21.987Z,-2.30
2019-01-24T07:47:25.500Z,-2.40
2019-01-24T07:52:29.690Z,-2.40
2019-01-24T07:57:33.002Z,-2.20
2019-01-24T08:02:36.459Z,-2.10
2019-01-24T08:07:39.818Z,-2.00
2019-01-24T08:12:50.960Z,-2.10
2019-01-24T08:17:54.581Z,-2.10
2019-01-24T08:22:59.826Z,-2.10
2019-01-24T08:28:03.043Z,-2.10
2019-01-24T08:33:06.494Z,-2.00
2019-01-24T08:38:09.927Z,-2.00
2019-01-24T08:43:13.315Z,-2.00
2019-01-24T08:48:16.674Z,-1.90
2019-01-24T08:53:20.016Z,-2.10
2019-01-24T08:58:23.620Z,-2.00
2019-01-24T09:03:26.778Z,-1.90
2019-01-24T09:08:29.643Z,-2.00
2019-01-24T09:13:37.703Z,-1.90
2019-01-24T09:18:47.033Z,-1.80
2019-01-24T09:23:50.619Z,-1.80
2019-01-24T09:28:54.052Z,-1.70
2019-01-24T09:34:00.027Z,-1.80
2019-01-24T09:39:04.892Z,-1.80
2019-01-24T09:44:09.721Z,-1.80
2019-01-24T09:49:16.042Z,-1.70
2019-01-24T09:54:19.693Z,-1.80
2019-01-24T09:59:30.277Z,-1.70
2019-01-24T10:04:33.687Z,-1.60
2019-01-24T10:09:37.236Z,-1.60
2019-01-24T10:14:46.713Z,-1.50
2019-01-24T10:19:50.026Z,-1.60
2019-01-24T10:24:56.365Z,-1.50
2019-01-24T10:29:59.614Z,-1.50
2019-01-24T10:35:03.066Z,-1.50
2019-01-24T10:40:12.297Z,-1.40
2019-01-24T10:45:16.310Z,-1.40
2019-01-24T10:50:21.135Z,-1.60
2019-01-24T10:55:43.349Z,-1.40
2019-01-24T11:00:46.865Z,-1.40
2019-01-24T11:05:50.212Z,-1.50
2019-01-24T11:10:56.558Z,-1.50
2019-01-24T11:15:59.921Z,-1.30
2019-01-24T11:21:03.663Z,-1.30
2019-01-24T11:26:07.046Z,-1.30
2019-01-24T11:31:10.622Z,-1.30
2019-01-24T11:36:13.872Z,-1.30
2019-01-24T11:41:17.444Z,-1.30
2019-01-24T11:46:24.087Z,-1.20
2019-01-24T11:51:27.493Z,-1.30
2019-01-24T11:56:31.571Z,-1.10
2019-01-24T12:01:35.090Z,-1.20
2019-01-24T12:06:38.397Z,-1.00
2019-01-24T12:11:44.398Z,-0.90
2019-01-24T12:16:47.762Z,-0.90
2019-01-24T12:21:51.300Z,-0.80
2019-01-24T12:26:54.673Z,-0.80
2019-01-24T12:31:58.075Z,-0.90
2019-01-24T12:37:01.501Z,-0.80
2019-01-24T12:42:10.787Z,-0.80
2019-01-24T12:47:14.405Z,-0.80
2019-01-24T12:52:18.023Z,-0.80
2019-01-24T12:57:21.538Z,-0.60
2019-01-24T13:02:25.087Z,-0.80
2019-01-24T13:07:40.244Z,-0.80
2019-01-24T13:12:43.626Z,-0.70
2019-01-24T13:17:47.270Z,-0.80
2019-01-24T13:22:50.839Z,-0.80
2019-01-24T13:27:57.357Z,-0.70
2019-01-24T13:33:04.629Z,-0.80
2019-01-24T13:38:13.930Z,-0.90
2019-01-24T13:43:17.441Z,-0.80
2019-01-24T13:48:20.998Z,-0.90
2019-01-24T13:53:24.471Z,-0.90
2019-01-24T13:58:27.743Z,-0.90
2019-01-24T14:03:42.331Z,-0.90
2019-01-24T14:08:54.227Z,-0.80
2019-01-24T14:14:00.836Z,-0.90
2019-01-24T14:19:04.272Z,-0.80
2019-01-24T14:24:10.948Z,-0.90
2019-01-24T14:29:16.006Z,-0.90
2019-01-24T14:34:19.453Z,-0.90
2019-01-24T14:39:22.799Z,-0.90
2019-01-24T14:44:26.246Z,-0.90
2019-01-24T14:49:29.633Z,-1.10
2019-01-24T14:54:33.173Z,-1.00
2019-01-24T14:59:36.549Z,-1.00
2019-01-24T15:04:42.960Z,-1.00
2019-01-24T15:09:46.513Z,-1.10
2019-01-24T15:15:10.707Z,-1.00
2019-01-24T15:20:14.472Z,-1.10
2019-01-24T15:25:17.857Z,-1.10
2019-01-24T15:30:22.633Z,-1.20
2019-01-24T15:35:26.159Z,-1.10
2019-01-24T15:40:32.663Z,-1.30
2019-01-24T15:45:35.691Z,-1.30
2019-01-24T15:50:39.696Z,-1.10
2019-01-24T15:55:45.603Z,-1.20
2019-01-24T16:00:48.548Z,-1.10
2019-01-24T16:05:51.478Z,-1.10
2019-01-24T16:10:54.783Z,-1.20
2019-01-24T16:15:58.639Z,-1.20
2019-01-24T16:21:04.786Z,-1.10
2019-01-24T16:26:07.636Z,-1.10
2019-01-24T16:31:10.594Z,-1.20
2019-01-24T16:36:23.114Z,-1.10
2019-01-24T16:41:26.529Z,-1.20
2019-01-24T16:46:30.350Z,-1.10
2019-01-24T16:51:34.315Z,-1.00
2019-01-24T16:56:38.820Z,-1.10
2019-01-24T17:01:42.171Z,-1.10
2019-01-24T17:06:45.582Z,-1.00
2019-01-24T17:11:48.870Z,-1.20
2019-01-24T17:16:52.113Z,-1.00
2019-01-24T17:21:59.396Z,-1.10
2019-01-24T17:27:02.294Z,-1.00
2019-01-24T17:32:05.804Z,-1.00
2019-01-24T17:37:10.860Z,-1.10
2019-01-24T17:42:14.372Z,-1.10
2019-01-24T17:47:38.420Z,-1.10
2019-01-24T17:52:43.381Z,-1.00
2019-01-24T17:57:46.790Z,-1.00
2019-01-24T18:02:56.620Z,-1.00
2019-01-24T18:08:03.144Z,-1.00
2019-01-24T18:13:07.171Z,-0.90
2019-01-24T18:18:12.910Z,-1.00
2019-01-24T18:23:25.358Z,-1.10
2019-01-24T18:28:28.262Z,-1.10
2019-01-24T18:33:31.173Z,-1.00
2019-01-24T18:38:38.444Z,-1.00
2019-01-24T18:43:39.067Z,-1.00
2019-01-24T18:48:42.625Z,-1.00
2019-01-24T18:53:47.017Z,-1.10
2019-01-24T18:58:49.878Z,-1.00
2019-01-24T19:03:52.714Z,-1.00
2019-01-24T19:08:56.175Z,-1.10
2019-01-24T19:14:08.598Z,-1.20
2019-01-24T19:19:11.857Z,-1.10
2019-01-24T19:24:18.393Z,-1.20
2019-01-24T19:29:22.791Z,-1.20
2019-01-24T19:34:26.347Z,-1.00
2019-01-24T19:39:29.709Z,-1.10
2019-01-24T19:44:33.751Z,-1.10
2019-01-24T19:49:40.025Z,-1.20
2019-01-24T19:54:46.109Z,-1.20
2019-01-24T19:59:49.602Z,-1.30
2019-01-24T20:04:58.803Z,-1.20
2019-01-24T20:10:02.214Z,-1.20
2019-01-24T20:15:13.678Z,-1.10
2019-01-24T20:20:17.136Z,-1.20
2019-01-24T20:25:22.392Z,-1.10
2019-01-24T20:30:27.126Z,-1.10
2019-01-24T20:35:45.296Z,-1.20
2019-01-24T20:40:48.945Z,-1.20
2019-01-24T20:45:52.301Z,-1.10
2019-01-24T20:50:55.701Z,-1.20
2019-01-24T20:55:58.985Z,-1.10
2019-01-24T21:01:02.458Z,-1.10
2019-01-24T21:06:09.046Z,-1.10
2019-01-24T21:11:15.326Z,-1.10
2019-01-24T21:16:18.848Z,-1.10
2019-01-24T21:21:23.952Z,-1.10
2019-01-24T21:26:30.038Z,-1.20
2019-01-24T21:31:33.898Z,-1.10
2019-01-24T21:36:38.335Z,-1.10
2019-01-24T21:41:46.456Z,-1.20
2019-01-24T21:46:49.741Z,-1.20
2019-01-24T21:52:04.765Z,-1.10
2019-01-24T21:57:08.272Z,-1.20
2019-01-24T22:02:11.609Z,-1.10
2019-01-24T22:07:14.881Z,-1.30
2019-01-24T22:12:18.234Z,-1.30
2019-01-24T22:17:21.701Z,-1.40
2019-01-24T22:22:25.002Z,-1.20
2019-01-24T22:27:28.303Z,-1.20
2019-01-24T22:32:31.945Z,-1.10
2019-01-24T22:37:38.619Z,-1.00
2019-01-24T22:42:43.119Z,-1.10
2019-01-24T22:47:46.679Z,-1.30
2019-01-24T22:52:49.980Z,-1.30
2019-01-24T22:57:53.413Z,-1.10
2019-01-24T23:03:01.742Z,-1.20
2019-01-24T23:08:05.127Z,-1.20
2019-01-24T23:13:09.695Z,-1.20
2019-01-24T23:18:16.293Z,-1.10
2019-01-24T23:23:19.589Z,-1.20
2019-01-24T23:28:22.881Z,-1.20
2019-01-24T23:33:26.311Z,-1.20
2019-01-24T23:38:29.724Z,-1.20
2019-01-24T23:43:33.052Z,-1.30
2019-01-24T23:48:36.554Z,-1.40
2019-01-24T23:53:40.025Z,-1.20
2019-01-24T23:58:49.057Z,-1.30
